createdAt,value
2022-11-16T00:00:10.735Z,8.59
2022-11-16T00:02:40.436Z,8.74
2022-11-16T00:05:09.452Z,8.86
2022-11-16T00:07:37.777Z,8.98
2022-11-16T00:10:06.818Z,8.97
2022-11-16T00:12:35.037Z,9.10
2022-11-16T00:15:03.310Z,9.12
2022-11-16T00:17:31.599Z,8.81
2022-11-16T00:20:01.333Z,7.82
2022-11-16T00:22:29.625Z,7.70
2022-11-16T00:24:57.887Z,7.46
2022-11-16T00:27:26.184Z,7.55
2022-11-16T00:29:54.494Z,7.98
2022-11-16T00:32:23.683Z,8.39
2022-11-16T00:34:51.896Z,8.55
2022-11-16T00:37:21.637Z,8.29
2022-11-16T00:39:49.855Z,8.31
2022-11-16T00:42:18.080Z,8.16
2022-11-16T00:44:46.322Z,8.28
2022-11-16T00:47:14.585Z,8.53
2022-11-16T00:49:42.767Z,8.66
2022-11-16T00:52:10.952Z,8.60
2022-11-16T00:54:40.672Z,8.55
2022-11-16T00:57:08.995Z,7.91
2022-11-16T00:59:37.191Z,8.00
2022-11-16T01:02:05.417Z,8.19
2022-11-16T01:04:33.649Z,8.23
2022-11-16T01:07:01.923Z,8.39
2022-11-16T01:09:30.210Z,8.17
2022-11-16T01:12:12.845Z,8.44
2022-11-16T01:14:44.545Z,8.45
2022-11-16T01:17:13.158Z,8.54
2022-11-16T01:19:42.117Z,8.92
2022-11-16T01:22:10.385Z,8.47
2022-11-16T01:24:38.622Z,8.81
2022-11-16T01:27:08.234Z,8.82
2022-11-16T01:29:36.476Z,9.17
2022-11-16T01:32:04.743Z,8.76
2022-11-16T01:34:34.112Z,9.24
2022-11-16T01:37:02.361Z,9.05
2022-11-16T01:39:30.567Z,8.95
2022-11-16T01:41:58.883Z,9.29
2022-11-16T01:45:09.514Z,9.38
2022-11-16T01:47:39.235Z,9.05
2022-11-16T01:50:11.556Z,9.31
2022-11-16T01:52:46.411Z,9.36
2022-11-16T01:55:14.890Z,9.41
2022-11-16T01:57:45.517Z,9.54
2022-11-16T02:00:15.692Z,9.34
2022-11-16T02:02:45.793Z,9.49
2022-11-16T02:05:17.785Z,9.64
2022-11-16T02:08:25.546Z,9.56
2022-11-16T02:11:11.887Z,9.21
2022-11-16T02:13:52.593Z,9.19
2022-11-16T02:16:33.378Z,8.97
2022-11-16T02:19:28.316Z,9.39
2022-11-16T02:22:07.275Z,9.34
2022-11-16T02:24:45.952Z,8.76
2022-11-16T02:27:49.566Z,8.59
2022-11-16T02:30:21.173Z,8.15
2022-11-16T02:32:54.948Z,8.23
2022-11-16T02:35:27.790Z,8.37
2022-11-16T02:38:00.409Z,7.53
2022-11-16T02:40:33.034Z,7.34
2022-11-16T02:43:06.428Z,7.50
2022-11-16T02:45:41.355Z,7.83
2022-11-16T02:48:14.467Z,8.26
2022-11-16T02:50:44.571Z,8.90
2022-11-16T02:53:12.866Z,8.94
2022-11-16T02:55:41.688Z,9.05
2022-11-16T02:58:12.382Z,9.08
2022-11-16T03:00:48.232Z,9.11
2022-11-16T03:03:28.292Z,9.03
2022-11-16T03:06:03.161Z,8.89
2022-11-16T03:08:34.057Z,8.48
2022-11-16T03:11:23.156Z,9.04
2022-11-16T03:13:52.423Z,9.11
2022-11-16T03:16:27.320Z,9.21
2022-11-16T03:18:58.664Z,9.27
2022-11-16T03:21:34.430Z,8.84
2022-11-16T03:24:03.279Z,9.40
2022-11-16T03:26:39.732Z,8.70
2022-11-16T03:29:15.581Z,9.18
2022-11-16T03:31:50.173Z,9.31
2022-11-16T03:34:23.606Z,9.64
2022-11-16T03:36:54.341Z,9.77
2022-11-16T03:39:26.956Z,9.59
2022-11-16T03:41:57.675Z,9.59
2022-11-16T03:44:26.944Z,9.68
2022-11-16T03:46:56.826Z,8.80
2022-11-16T03:49:25.278Z,8.39
2022-11-16T03:51:53.758Z,7.80
2022-11-16T03:54:22.224Z,8.34
2022-11-16T03:56:50.497Z,8.07
2022-11-16T03:59:18.727Z,8.56
2022-11-16T04:01:46.927Z,8.92
2022-11-16T04:04:30.415Z,9.17
2022-11-16T04:07:16.107Z,9.37
2022-11-16T04:10:01.543Z,9.47
2022-11-16T04:12:47.095Z,9.40
2022-11-16T04:15:31.771Z,9.45
2022-11-16T04:18:17.134Z,9.72
2022-11-16T04:21:04.159Z,9.22
2022-11-16T04:23:50.000Z,9.33
2022-11-16T04:26:18.461Z,9.34
2022-11-16T04:28:45.818Z,9.32
2022-11-16T04:31:31.730Z,8.89
2022-11-16T04:34:17.220Z,9.17
2022-11-16T04:37:04.234Z,9.36
2022-11-16T04:39:32.457Z,9.47
2022-11-16T04:42:16.029Z,9.51
2022-11-16T04:45:01.895Z,9.38
2022-11-16T04:47:30.194Z,9.09
2022-11-16T04:49:58.411Z,9.10
2022-11-16T04:52:28.001Z,9.28
2022-11-16T04:54:56.265Z,9.23
2022-11-16T04:57:24.581Z,8.81
2022-11-16T04:59:52.768Z,8.60
2022-11-16T05:02:21.175Z,8.66
2022-11-16T05:04:49.450Z,9.20
2022-11-16T05:07:17.717Z,8.49
2022-11-16T05:09:48.834Z,8.66
2022-11-16T05:12:20.761Z,9.10
2022-11-16T05:14:49.025Z,8.78
2022-11-16T05:17:18.176Z,8.81
2022-11-16T05:20:03.887Z,8.81
2022-11-16T05:22:32.181Z,8.96
2022-11-16T05:25:01.894Z,8.92
2022-11-16T05:27:31.216Z,9.03
2022-11-16T05:29:59.770Z,9.24
2022-11-16T05:32:29.414Z,9.44
2022-11-16T05:34:57.611Z,9.30
2022-11-16T05:37:27.004Z,9.22
2022-11-16T05:39:57.158Z,9.16
2022-11-16T05:42:26.840Z,9.37
2022-11-16T05:44:55.085Z,9.48
2022-11-16T05:47:23.337Z,9.65
2022-11-16T05:49:51.647Z,9.24
2022-11-16T05:52:19.898Z,8.79
2022-11-16T05:54:48.109Z,9.11
2022-11-16T05:57:17.571Z,9.20
2022-11-16T05:59:47.260Z,9.14
2022-11-16T06:02:15.480Z,9.35
2022-11-16T06:04:43.737Z,9.59
2022-11-16T06:07:12.075Z,9.57
2022-11-16T06:09:40.350Z,8.84
2022-11-16T06:12:09.401Z,9.11
2022-11-16T06:14:37.744Z,9.27
2022-11-16T06:17:07.399Z,9.31
2022-11-16T06:19:36.712Z,9.23
2022-11-16T06:22:04.927Z,9.42
2022-11-16T06:24:33.161Z,9.52
2022-11-16T06:27:01.563Z,9.50
2022-11-16T06:29:29.788Z,10.00
2022-11-16T06:31:58.072Z,10.07
2022-11-16T06:34:27.698Z,9.84
2022-11-16T06:36:55.942Z,10.24
2022-11-16T06:39:24.236Z,10.35
2022-11-16T06:41:52.453Z,9.70
2022-11-16T06:44:20.648Z,9.78
2022-11-16T06:46:48.808Z,9.82
2022-11-16T06:49:17.086Z,10.00
2022-11-16T06:51:46.695Z,10.00
2022-11-16T06:57:00.419Z,10.39
2022-11-16T06:59:28.612Z,10.76
2022-11-16T07:01:56.935Z,10.70
2022-11-16T07:04:25.226Z,10.65
2022-11-16T07:06:55.061Z,10.64
2022-11-16T07:09:23.300Z,10.83
2022-11-16T07:11:51.563Z,10.83
2022-11-16T07:14:20.494Z,10.90
2022-11-16T07:16:48.711Z,10.97
2022-11-16T07:19:17.409Z,11.06
2022-11-16T07:21:45.687Z,10.78
2022-11-16T07:24:18.679Z,10.86
2022-11-16T07:26:46.997Z,10.26
2022-11-16T07:29:15.778Z,10.48
2022-11-16T07:31:44.069Z,10.05
2022-11-16T07:34:15.432Z,10.88
2022-11-16T07:36:43.938Z,10.66
2022-11-16T07:39:12.134Z,10.56
2022-11-16T07:41:44.428Z,10.25
2022-11-16T07:44:12.671Z,10.19
2022-11-16T07:46:48.799Z,10.39
2022-11-16T07:49:19.657Z,10.98
2022-11-16T07:51:47.909Z,11.05
2022-11-16T07:54:17.060Z,10.65
2022-11-16T07:56:46.665Z,10.66
2022-11-16T07:59:14.901Z,10.83
2022-11-16T08:01:43.157Z,11.16
2022-11-16T08:04:11.360Z,11.23
2022-11-16T08:06:39.570Z,11.84
2022-11-16T08:09:07.789Z,11.50
2022-11-16T08:11:36.012Z,12.19
2022-11-16T08:14:05.719Z,12.42
2022-11-16T08:16:34.284Z,12.89
2022-11-16T08:19:02.531Z,13.11
2022-11-16T08:21:30.774Z,13.43
2022-11-16T08:23:59.243Z,13.35
2022-11-16T08:26:28.317Z,13.93
2022-11-16T08:28:56.743Z,13.58
2022-11-16T08:31:28.016Z,13.56
2022-11-16T08:33:56.879Z,13.65
2022-11-16T08:36:25.232Z,14.34
2022-11-16T08:38:54.097Z,14.60
2022-11-16T08:41:22.851Z,15.36
2022-11-16T08:43:53.529Z,16.11
2022-11-16T08:46:22.261Z,17.50
2022-11-16T08:48:57.056Z,18.25
2022-11-16T08:54:12.357Z,18.27
2022-11-16T08:56:40.616Z,18.97
2022-11-16T08:59:08.835Z,18.34
2022-11-16T09:01:37.099Z,19.61
2022-11-16T09:04:07.046Z,19.55
2022-11-16T09:06:37.335Z,19.39
2022-11-16T09:09:06.041Z,20.02
2022-11-16T09:11:34.525Z,20.15
2022-11-16T09:16:48.366Z,21.02
2022-11-16T09:19:17.935Z,21.14
2022-11-16T09:21:46.671Z,22.08
2022-11-16T09:24:14.978Z,22.95
2022-11-16T09:26:43.210Z,21.47
2022-11-16T09:29:14.286Z,21.59
2022-11-16T09:31:42.754Z,21.14
2022-11-16T09:34:11.125Z,21.93
2022-11-16T09:36:40.814Z,22.21
2022-11-16T09:42:08.608Z,21.93
2022-11-16T09:44:59.495Z,21.55
2022-11-16T09:47:39.794Z,22.59
2022-11-16T09:50:16.583Z,21.84
2022-11-16T09:52:50.686Z,21.88
2022-11-16T09:55:25.874Z,22.23
2022-11-16T09:57:58.700Z,23.13
2022-11-16T10:00:27.010Z,23.87
2022-11-16T10:03:03.338Z,24.97
2022-11-16T10:05:38.675Z,23.96
2022-11-16T10:08:16.031Z,22.71
2022-11-16T10:10:52.370Z,22.20
2022-11-16T10:13:29.430Z,23.44
2022-11-16T10:16:06.402Z,23.33
2022-11-16T10:18:47.943Z,23.83
2022-11-16T10:21:37.436Z,23.18
2022-11-16T10:24:26.289Z,23.33
2022-11-16T10:27:08.866Z,23.33
2022-11-16T10:29:49.424Z,23.56
2022-11-16T10:32:26.112Z,23.55
2022-11-16T10:34:56.064Z,23.88
2022-11-16T10:37:31.627Z,23.98
2022-11-16T10:40:03.722Z,23.99
2022-11-16T10:42:39.342Z,23.17
2022-11-16T10:45:16.787Z,24.19
2022-11-16T10:47:51.331Z,25.29
2022-11-16T10:50:33.073Z,23.75
2022-11-16T10:53:01.996Z,23.50
2022-11-16T10:55:31.888Z,23.38
2022-11-16T10:58:02.012Z,23.92
2022-11-16T11:00:39.601Z,22.98
2022-11-16T11:03:10.831Z,23.05
2022-11-16T11:05:49.262Z,23.38
2022-11-16T11:08:27.496Z,23.05
2022-11-16T11:11:22.804Z,23.17
2022-11-16T11:14:05.273Z,23.44
2022-11-16T11:16:33.462Z,25.13
2022-11-16T11:19:20.386Z,24.33
2022-11-16T11:21:49.295Z,24.39
2022-11-16T11:27:08.945Z,24.30
2022-11-16T11:29:38.967Z,24.16
2022-11-16T11:32:16.887Z,23.11
2022-11-16T11:34:50.830Z,20.83
2022-11-16T11:37:22.999Z,21.07
2022-11-16T11:40:06.704Z,21.77
2022-11-16T11:42:36.711Z,22.02
2022-11-16T11:45:09.395Z,22.80
2022-11-16T11:47:58.689Z,22.56
2022-11-16T11:50:38.085Z,21.58
2022-11-16T11:53:09.550Z,21.47
2022-11-16T11:55:37.873Z,21.24
2022-11-16T11:58:12.676Z,21.08
2022-11-16T12:01:05.828Z,21.64
2022-11-16T12:03:52.359Z,20.49
2022-11-16T12:06:29.100Z,21.71
2022-11-16T12:09:09.869Z,20.52
2022-11-16T12:11:50.647Z,20.23
2022-11-16T12:14:34.189Z,19.75
2022-11-16T12:17:08.635Z,19.91
2022-11-16T12:19:56.448Z,18.86
2022-11-16T12:22:42.287Z,18.70
2022-11-16T12:25:22.550Z,19.40
2022-11-16T12:28:05.664Z,19.17
2022-11-16T12:30:45.196Z,18.85
2022-11-16T12:33:26.023Z,18.71
2022-11-16T12:36:02.535Z,18.37
2022-11-16T12:38:59.812Z,18.25
2022-11-16T12:41:48.200Z,18.26
2022-11-16T12:44:23.560Z,17.95
2022-11-16T12:47:05.697Z,18.13
2022-11-16T12:49:57.632Z,18.48
2022-11-16T12:52:43.640Z,18.91
2022-11-16T12:55:27.130Z,19.20
2022-11-16T12:58:15.725Z,18.95
2022-11-16T13:00:59.774Z,19.81
2022-11-16T13:03:35.378Z,20.22
2022-11-16T13:06:08.251Z,20.43
2022-11-16T13:08:48.344Z,20.33
2022-11-16T13:11:21.943Z,19.32
2022-11-16T13:13:54.044Z,19.00
2022-11-16T13:16:24.128Z,18.90
2022-11-16T13:18:55.649Z,19.01
2022-11-16T13:21:41.071Z,19.20
2022-11-16T13:24:28.512Z,19.48
2022-11-16T13:27:02.731Z,18.86
2022-11-16T13:29:38.387Z,19.66
2022-11-16T13:32:14.913Z,20.17
2022-11-16T13:34:45.423Z,19.43
2022-11-16T13:37:48.231Z,19.70
2022-11-16T13:40:28.397Z,19.26
2022-11-16T13:43:04.802Z,18.47
2022-11-16T13:45:36.309Z,18.44
2022-11-16T13:48:18.159Z,18.70
2022-11-16T13:50:52.949Z,18.68
2022-11-16T13:56:17.053Z,18.98
2022-11-16T13:58:47.653Z,19.34
2022-11-16T14:01:16.972Z,19.49
2022-11-16T14:03:48.423Z,19.39
2022-11-16T14:06:53.483Z,19.52
2022-11-16T14:09:45.582Z,19.63
2022-11-16T14:12:51.603Z,19.52
2022-11-16T14:15:22.092Z,19.23
2022-11-16T14:17:54.846Z,19.26
2022-11-16T14:20:34.674Z,18.97
2022-11-16T14:23:17.564Z,18.61
2022-11-16T14:25:56.821Z,18.16
2022-11-16T14:28:39.532Z,18.26
2022-11-16T14:31:17.137Z,17.86
2022-11-16T14:33:52.210Z,17.87
2022-11-16T14:36:37.978Z,18.04
2022-11-16T14:39:24.904Z,17.95
2022-11-16T14:41:55.466Z,18.11
2022-11-16T14:44:27.874Z,17.90
2022-11-16T14:46:57.214Z,17.91
2022-11-16T14:49:28.365Z,17.50
2022-11-16T14:52:00.253Z,17.71
2022-11-16T14:54:35.120Z,17.85
2022-11-16T14:57:06.890Z,17.80
2022-11-16T14:59:35.104Z,17.24
2022-11-16T15:02:20.583Z,17.43
2022-11-16T15:04:49.911Z,17.39
2022-11-16T15:07:20.527Z,16.92
2022-11-16T15:09:51.577Z,16.48
2022-11-16T15:12:42.592Z,17.01
2022-11-16T15:15:17.105Z,16.96
2022-11-16T15:17:47.022Z,16.96
2022-11-16T15:20:20.953Z,16.36
2022-11-16T15:22:52.215Z,16.59
2022-11-16T15:25:29.426Z,16.46
2022-11-16T15:28:01.927Z,16.48
2022-11-16T15:30:33.163Z,16.40
2022-11-16T15:33:03.814Z,15.96
2022-11-16T15:35:33.959Z,15.51
2022-11-16T15:38:07.275Z,15.50
2022-11-16T15:40:36.511Z,15.88
2022-11-16T15:43:07.789Z,15.89
2022-11-16T15:45:37.768Z,15.37
2022-11-16T15:48:07.133Z,15.13
2022-11-16T15:50:35.447Z,14.44
2022-11-16T15:53:03.734Z,14.85
2022-11-16T15:55:35.537Z,14.54
2022-11-16T15:58:15.314Z,15.02
2022-11-16T16:00:48.448Z,14.86
2022-11-16T16:03:23.043Z,14.24
2022-11-16T16:05:51.966Z,14.44
2022-11-16T16:08:28.308Z,14.28
2022-11-16T16:11:27.666Z,14.26
2022-11-16T16:14:01.795Z,14.35
2022-11-16T16:16:32.619Z,13.58
2022-11-16T16:19:09.291Z,13.60
2022-11-16T16:21:45.888Z,13.56
2022-11-16T16:24:36.188Z,13.58
2022-11-16T16:27:11.705Z,13.79
2022-11-16T16:29:41.419Z,14.12
2022-11-16T16:32:17.321Z,14.21
2022-11-16T16:34:45.549Z,14.35
2022-11-16T16:37:14.053Z,14.08
2022-11-16T16:39:42.304Z,14.25
2022-11-16T16:42:13.212Z,13.69
2022-11-16T16:44:43.375Z,13.93
2022-11-16T16:47:11.903Z,13.56
2022-11-16T16:49:40.298Z,13.19
2022-11-16T16:52:09.691Z,13.65
2022-11-16T16:54:37.927Z,13.40
2022-11-16T16:57:06.257Z,13.87
2022-11-16T16:59:34.536Z,13.89
2022-11-16T17:02:04.331Z,13.35
2022-11-16T17:04:34.148Z,13.40
2022-11-16T17:07:02.399Z,13.71
2022-11-16T17:09:30.951Z,13.98
2022-11-16T17:11:59.239Z,14.03
2022-11-16T17:14:27.639Z,14.05
2022-11-16T17:16:55.872Z,13.59
2022-11-16T17:19:25.579Z,13.62
2022-11-16T17:21:54.202Z,13.76
2022-11-16T17:24:22.735Z,13.47
2022-11-16T17:26:51.019Z,13.24
2022-11-16T17:29:19.384Z,13.43
2022-11-16T17:31:48.420Z,13.18
2022-11-16T17:34:16.652Z,13.11
2022-11-16T17:36:46.314Z,13.27
2022-11-16T17:39:16.019Z,13.29
2022-11-16T17:41:44.399Z,13.27
2022-11-16T17:44:17.173Z,13.33
2022-11-16T17:46:48.532Z,13.31
2022-11-16T17:49:16.828Z,13.17
2022-11-16T17:51:48.748Z,13.51
2022-11-16T17:54:17.080Z,13.16
2022-11-16T17:56:45.332Z,13.02
2022-11-16T17:59:13.591Z,13.07
2022-11-16T18:01:41.977Z,12.97
2022-11-16T18:04:10.332Z,12.61
2022-11-16T18:06:39.548Z,12.98
2022-11-16T18:09:09.270Z,12.62
2022-11-16T18:11:40.004Z,13.08
2022-11-16T18:14:11.557Z,12.74
2022-11-16T18:16:41.173Z,13.08
2022-11-16T18:19:10.007Z,13.29
2022-11-16T18:21:41.100Z,12.81
2022-11-16T18:24:11.449Z,12.70
2022-11-16T18:26:40.459Z,12.27
2022-11-16T18:29:12.543Z,12.02
2022-11-16T18:31:41.356Z,12.85
2022-11-16T18:34:20.528Z,12.59
2022-11-16T18:36:51.252Z,13.34
2022-11-16T18:39:24.268Z,13.59
2022-11-16T18:41:56.427Z,13.60
2022-11-16T18:44:25.256Z,13.64
2022-11-16T18:46:53.645Z,13.66
2022-11-16T18:49:25.773Z,13.70
2022-11-16T18:51:54.010Z,13.59
2022-11-16T18:54:27.044Z,13.63
2022-11-16T18:56:56.982Z,13.77
2022-11-16T18:59:27.511Z,13.83
2022-11-16T19:01:56.441Z,13.78
2022-11-16T19:04:27.287Z,13.80
2022-11-16T19:06:56.163Z,13.51
2022-11-16T19:09:26.545Z,13.54
2022-11-16T19:11:55.046Z,13.59
2022-11-16T19:14:23.340Z,13.56
2022-11-16T19:16:56.867Z,13.19
2022-11-16T19:19:27.839Z,13.48
2022-11-16T19:21:58.752Z,13.62
2022-11-16T19:24:29.003Z,13.84
2022-11-16T19:26:57.658Z,13.88
2022-11-16T19:29:26.174Z,13.75
2022-11-16T19:31:54.518Z,13.70
2022-11-16T19:34:22.765Z,13.65
2022-11-16T19:36:51.540Z,13.71
2022-11-16T19:39:19.912Z,13.71
2022-11-16T19:41:49.716Z,13.55
2022-11-16T19:44:18.242Z,13.42
2022-11-16T19:46:46.527Z,13.19
2022-11-16T19:49:20.221Z,13.56
2022-11-16T19:51:49.539Z,13.30
2022-11-16T19:54:17.833Z,13.14
2022-11-16T19:56:49.318Z,12.92
2022-11-16T19:59:21.695Z,12.63
2022-11-16T20:01:50.030Z,12.60
2022-11-16T20:04:18.267Z,13.00
2022-11-16T20:06:46.555Z,12.83
2022-11-16T20:09:14.804Z,12.52
2022-11-16T20:11:43.385Z,12.88
2022-11-16T20:14:13.981Z,13.18
2022-11-16T20:16:50.452Z,13.15
2022-11-16T20:19:20.609Z,12.49
2022-11-16T20:21:48.912Z,13.17
2022-11-16T20:24:19.075Z,13.42
2022-11-16T20:26:49.091Z,13.42
2022-11-16T20:29:19.244Z,13.26
2022-11-16T20:31:49.035Z,13.00
2022-11-16T20:34:20.432Z,13.32
2022-11-16T20:36:50.936Z,13.11
2022-11-16T20:39:20.841Z,12.53
2022-11-16T20:41:49.764Z,11.99
2022-11-16T20:44:22.181Z,12.10
2022-11-16T20:46:52.928Z,12.46
2022-11-16T20:49:21.439Z,12.98
2022-11-16T20:51:51.179Z,13.23
2022-11-16T20:54:19.440Z,13.40
2022-11-16T20:56:48.312Z,13.53
2022-11-16T20:59:16.565Z,13.56
2022-11-16T21:01:47.875Z,13.64
2022-11-16T21:04:17.771Z,13.71
2022-11-16T21:06:45.935Z,13.28
2022-11-16T21:09:16.018Z,12.98
2022-11-16T21:12:01.738Z,13.04
2022-11-16T21:14:30.077Z,13.08
2022-11-16T21:16:58.304Z,13.20
2022-11-16T21:19:27.912Z,13.33
2022-11-16T21:21:56.061Z,13.40
2022-11-16T21:24:24.938Z,13.63
2022-11-16T21:26:53.480Z,13.79
2022-11-16T21:29:26.030Z,13.64
2022-11-16T21:31:54.341Z,13.51
2022-11-16T21:34:24.501Z,13.61
2022-11-16T21:36:54.108Z,13.58
2022-11-16T21:39:22.480Z,13.46
2022-11-16T21:41:50.689Z,13.22
2022-11-16T21:44:18.854Z,12.99
2022-11-16T21:46:47.081Z,13.27
2022-11-16T21:49:15.368Z,13.36
2022-11-16T21:51:43.621Z,13.48
2022-11-16T21:54:13.952Z,13.47
2022-11-16T21:56:42.237Z,13.31
2022-11-16T21:59:10.478Z,13.28
2022-11-16T22:01:52.482Z,13.29
2022-11-16T22:04:38.011Z,13.39
2022-11-16T22:07:23.613Z,13.41
2022-11-16T22:09:53.213Z,13.43
2022-11-16T22:12:21.442Z,13.44
2022-11-16T22:14:49.708Z,13.49
2022-11-16T22:17:17.936Z,13.48
2022-11-16T22:19:46.140Z,13.51
2022-11-16T22:22:14.687Z,13.43
2022-11-16T22:24:43.022Z,13.46
2022-11-16T22:27:12.755Z,13.50
2022-11-16T22:29:41.010Z,13.63
2022-11-16T22:32:09.333Z,13.58
2022-11-16T22:34:37.894Z,13.21
2022-11-16T22:37:06.190Z,13.50
2022-11-16T22:39:34.805Z,13.63
2022-11-16T22:42:02.994Z,13.42
2022-11-16T22:44:32.709Z,13.43
2022-11-16T22:47:00.885Z,13.57
2022-11-16T22:49:29.084Z,13.58
2022-11-16T22:51:57.391Z,13.65
2022-11-16T22:54:28.598Z,13.69
2022-11-16T22:56:57.215Z,13.77
2022-11-16T22:59:45.548Z,13.73
2022-11-16T23:02:13.825Z,13.68
2022-11-16T23:04:42.091Z,13.36
2022-11-16T23:07:10.334Z,13.28
2022-11-16T23:09:38.643Z,13.51
2022-11-16T23:12:24.509Z,13.54
2022-11-16T23:15:11.508Z,13.62
2022-11-16T23:17:39.765Z,13.06
2022-11-16T23:20:26.916Z,13.36
2022-11-16T23:23:12.364Z,13.54
2022-11-16T23:25:58.275Z,13.51
2022-11-16T23:28:26.963Z,13.88
2022-11-16T23:30:56.564Z,13.69
2022-11-16T23:33:43.997Z,13.38
2022-11-16T23:36:12.438Z,12.87
2022-11-16T23:38:40.910Z,12.60
2022-11-16T23:41:26.815Z,12.93
2022-11-16T23:44:00.832Z,13.26
2022-11-16T23:46:32.539Z,13.20
2022-11-16T23:49:01.626Z,13.06
2022-11-16T23:51:29.852Z,13.17
2022-11-16T23:53:58.255Z,13.47
2022-11-16T23:56:26.494Z,13.04
2022-11-16T23:58:57.164Z,13.24
